Terminal Aerodrome Forecast
Issued by NWS

Home | Current Version | Previous Version | Text Only | Print | Product List | Glossary On
Versions: 1 2 3 4 5 6 7 8 9 10 11 12 13 14 15 16 17 18 19 20 21
000
FTUS45 KGGW 060500
TAFSDY
TAF
KSDY 060520Z 0606/0706 31009KT P6SM SCT060 BKN090
     FM061200 VRB06KT 5SM HZ SCT070
     FM070000 01007KT P6SM FEW240
      AMD LTD TO CLD VIS AND WIND=

USA.gov is the U.S. government's official web portal to all federal, state and local government web resources and services.